sensor_id;sensor_type;location;lat;lon;timestamp;pressure;altitude;pressure_sealevel;temperature;humidity
70690;BME280;58267;51.156;17.044;2023-05-25T00:01:42;100917.93;;;13.75;42.60
70690;BME280;58267;51.156;17.044;2023-05-25T00:04:08;100915.05;;;13.78;42.88
70690;BME280;58267;51.156;17.044;2023-05-25T00:06:33;100917.80;;;13.44;43.01
70690;BME280;58267;51.156;17.044;2023-05-25T00:08:58;100917.99;;;13.76;42.47
70690;BME280;58267;51.156;17.044;2023-05-25T00:11:23;100918.94;;;14.29;41.91
70690;BME280;58267;51.156;17.044;2023-05-25T00:13:50;100921.70;;;14.12;41.28
70690;BME280;58267;51.156;17.044;2023-05-25T00:16:15;100921.16;;;14.39;41.43
70690;BME280;58267;51.156;17.044;2023-05-25T00:18:40;100918.68;;;14.35;41.49
70690;BME280;58267;51.156;17.044;2023-05-25T00:21:06;100912.82;;;13.93;41.73
70690;BME280;58267;51.156;17.044;2023-05-25T00:23:32;100913.05;;;14.06;41.77
70690;BME280;58267;51.156;17.044;2023-05-25T00:25:57;100915.73;;;14.22;41.55
70690;BME280;58267;51.156;17.044;2023-05-25T00:28:23;100915.68;;;14.09;41.53
70690;BME280;58267;51.156;17.044;2023-05-25T00:30:48;100912.99;;;13.50;42.10
70690;BME280;58267;51.156;17.044;2023-05-25T00:33:14;100914.29;;;13.65;42.19
70690;BME280;58267;51.156;17.044;2023-05-25T00:35:39;100915.75;;;13.80;41.89
70690;BME280;58267;51.156;17.044;2023-05-25T00:38:05;100916.16;;;13.99;41.63
70690;BME280;58267;51.156;17.044;2023-05-25T00:40:30;100913.36;;;13.65;42.05
70690;BME280;58267;51.156;17.044;2023-05-25T00:42:57;100917.54;;;13.79;42.42
70690;BME280;58267;51.156;17.044;2023-05-25T00:45:21;100918.78;;;13.04;43.46
70690;BME280;58267;51.156;17.044;2023-05-25T00:47:50;100919.45;;;13.32;43.31
70690;BME280;58267;51.156;17.044;2023-05-25T00:50:14;100918.97;;;13.02;43.46
70690;BME280;58267;51.156;17.044;2023-05-25T00:52:36;100917.12;;;12.77;43.43
70690;BME280;58267;51.156;17.044;2023-05-25T00:55:03;100917.52;;;13.36;42.80
70690;BME280;58267;51.156;17.044;2023-05-25T00:57:29;100920.58;;;13.26;42.42
70690;BME280;58267;51.156;17.044;2023-05-25T00:59:55;100925.23;;;13.36;42.27
70690;BME280;58267;51.156;17.044;2023-05-25T01:02:20;100927.98;;;13.23;42.44
70690;BME280;58267;51.156;17.044;2023-05-25T01:04:48;100929.25;;;13.31;42.76
70690;BME280;58267;51.156;17.044;2023-05-25T01:07:16;100925.92;;;13.12;42.62
70690;BME280;58267;51.156;17.044;2023-05-25T01:09:38;100924.06;;;12.92;43.51
70690;BME280;58267;51.156;17.044;2023-05-25T01:12:03;100923.85;;;12.71;43.84
70690;BME280;58267;51.156;17.044;2023-05-25T01:14:34;100928.27;;;12.37;44.54
70690;BME280;58267;51.156;17.044;2023-05-25T01:16:53;100922.66;;;12.76;43.79
70690;BME280;58267;51.156;17.044;2023-05-25T01:19:18;100922.86;;;12.87;43.85
70690;BME280;58267;51.156;17.044;2023-05-25T01:21:46;100919.58;;;12.70;44.53
70690;BME280;58267;51.156;17.044;2023-05-25T01:24:14;100920.71;;;12.15;45.09
70690;BME280;58267;51.156;17.044;2023-05-25T01:26:43;100922.47;;;11.86;45.61
70690;BME280;58267;51.156;17.044;2023-05-25T01:29:01;100923.48;;;11.99;45.32
70690;BME280;58267;51.156;17.044;2023-05-25T01:31:25;100926.87;;;11.87;45.16
70690;BME280;58267;51.156;17.044;2023-05-25T01:33:51;100933.71;;;12.29;45.06
70690;BME280;58267;51.156;17.044;2023-05-25T01:36:16;100943.36;;;12.27;45.16
70690;BME280;58267;51.156;17.044;2023-05-25T01:38:41;100946.69;;;12.17;44.92
70690;BME280;58267;51.156;17.044;2023-05-25T01:41:06;100948.37;;;12.05;45.02
70690;BME280;58267;51.156;17.044;2023-05-25T01:43:32;100953.54;;;11.69;45.31
70690;BME280;58267;51.156;17.044;2023-05-25T01:46:05;100957.79;;;12.13;45.31
70690;BME280;58267;51.156;17.044;2023-05-25T01:48:29;100957.44;;;12.73;44.27
70690;BME280;58267;51.156;17.044;2023-05-25T01:50:53;100958.39;;;12.83;43.33
70690;BME280;58267;51.156;17.044;2023-05-25T01:53:17;100955.97;;;12.74;42.83
70690;BME280;58267;51.156;17.044;2023-05-25T01:55:45;100950.55;;;13.08;42.65
70690;BME280;58267;51.156;17.044;2023-05-25T01:58:04;100950.70;;;13.11;42.47
70690;BME280;58267;51.156;17.044;2023-05-25T02:00:30;100952.86;;;13.24;42.27
70690;BME280;58267;51.156;17.044;2023-05-25T02:02:56;100955.88;;;12.97;42.28
70690;BME280;58267;51.156;17.044;2023-05-25T02:05:21;100953.89;;;13.31;42.12
70690;BME280;58267;51.156;17.044;2023-05-25T02:07:46;100951.03;;;13.02;42.10
70690;BME280;58267;51.156;17.044;2023-05-25T02:10:11;100956.39;;;12.90;42.65
70690;BME280;58267;51.156;17.044;2023-05-25T02:12:37;100960.24;;;12.48;43.29
70690;BME280;58267;51.156;17.044;2023-05-25T02:15:03;100960.39;;;12.60;43.10
70690;BME280;58267;51.156;17.044;2023-05-25T02:17:28;100958.10;;;12.95;42.57
70690;BME280;58267;51.156;17.044;2023-05-25T02:19:53;100959.58;;;12.66;43.02
70690;BME280;58267;51.156;17.044;2023-05-25T02:22:19;100962.31;;;12.73;42.92
70690;BME280;58267;51.156;17.044;2023-05-25T02:24:44;100960.62;;;12.92;42.65
70690;BME280;58267;51.156;17.044;2023-05-25T02:27:10;100961.25;;;13.14;42.65
70690;BME280;58267;51.156;17.044;2023-05-25T02:29:35;100962.08;;;12.77;42.84
70690;BME280;58267;51.156;17.044;2023-05-25T02:32:01;100960.18;;;12.44;43.27
70690;BME280;58267;51.156;17.044;2023-05-25T02:34:26;100957.78;;;12.37;43.37
70690;BME280;58267;51.156;17.044;2023-05-25T02:36:51;100959.81;;;12.02;43.92
70690;BME280;58267;51.156;17.044;2023-05-25T02:39:17;100960.58;;;12.51;43.52
70690;BME280;58267;51.156;17.044;2023-05-25T02:41:42;100961.21;;;12.54;43.23
70690;BME280;58267;51.156;17.044;2023-05-25T02:44:15;100958.75;;;12.91;42.85
70690;BME280;58267;51.156;17.044;2023-05-25T02:46:33;100955.70;;;12.61;42.95
70690;BME280;58267;51.156;17.044;2023-05-25T02:48:59;100958.31;;;12.43;43.22
70690;BME280;58267;51.156;17.044;2023-05-25T02:51:24;100958.03;;;12.77;42.67
70690;BME280;58267;51.156;17.044;2023-05-25T02:53:50;100956.27;;;13.30;42.17
70690;BME280;58267;51.156;17.044;2023-05-25T02:56:16;100953.88;;;13.24;41.85
70690;BME280;58267;51.156;17.044;2023-05-25T02:58:42;100950.43;;;13.31;41.63
70690;BME280;58267;51.156;17.044;2023-05-25T03:01:08;100949.85;;;13.30;41.66
70690;BME280;58267;51.156;17.044;2023-05-25T03:03:33;100951.18;;;12.99;42.19
70690;BME280;58267;51.156;17.044;2023-05-25T03:05:58;100954.04;;;12.96;42.25
70690;BME280;58267;51.156;17.044;2023-05-25T03:08:23;100953.82;;;13.08;42.11
70690;BME280;58267;51.156;17.044;2023-05-25T03:10:48;100952.99;;;13.16;42.01
70690;BME280;58267;51.156;17.044;2023-05-25T03:13:14;100953.29;;;12.98;42.38
70690;BME280;58267;51.156;17.044;2023-05-25T03:15:39;100960.68;;;12.86;42.53
70690;BME280;58267;51.156;17.044;2023-05-25T03:18:05;100961.52;;;12.07;44.07
70690;BME280;58267;51.156;17.044;2023-05-25T03:20:31;100967.70;;;11.87;44.49
70690;BME280;58267;51.156;17.044;2023-05-25T03:22:56;100971.46;;;12.16;44.75
70690;BME280;58267;51.156;17.044;2023-05-25T03:25:22;100975.67;;;12.21;44.62
70690;BME280;58267;51.156;17.044;2023-05-25T03:27:52;100976.14;;;12.17;44.38
70690;BME280;58267;51.156;17.044;2023-05-25T03:30:17;100980.40;;;11.94;44.22
70690;BME280;58267;51.156;17.044;2023-05-25T03:32:42;100984.62;;;11.96;44.48
70690;BME280;58267;51.156;17.044;2023-05-25T03:35:08;100987.83;;;12.03;44.54
70690;BME280;58267;51.156;17.044;2023-05-25T03:37:33;100987.67;;;11.81;45.10
70690;BME280;58267;51.156;17.044;2023-05-25T03:39:59;100992.62;;;11.82;45.02
70690;BME280;58267;51.156;17.044;2023-05-25T03:42:26;100989.87;;;12.07;44.68
70690;BME280;58267;51.156;17.044;2023-05-25T03:44:51;100990.80;;;12.13;44.68
70690;BME280;58267;51.156;17.044;2023-05-25T03:47:17;100986.40;;;12.46;44.47
70690;BME280;58267;51.156;17.044;2023-05-25T03:49:42;100985.35;;;12.51;43.71
70690;BME280;58267;51.156;17.044;2023-05-25T03:52:08;100982.80;;;12.60;43.47
70690;BME280;58267;51.156;17.044;2023-05-25T03:54:33;100981.62;;;13.01;43.54
70690;BME280;58267;51.156;17.044;2023-05-25T03:56:58;100985.24;;;12.77;43.33
70690;BME280;58267;51.156;17.044;2023-05-25T03:59:23;100987.69;;;13.04;43.01
70690;BME280;58267;51.156;17.044;2023-05-25T04:01:49;100991.34;;;12.83;43.61
70690;BME280;58267;51.156;17.044;2023-05-25T04:04:15;101000.09;;;13.13;43.10
70690;BME280;58267;51.156;17.044;2023-05-25T04:06:40;100996.42;;;13.35;42.80
70690;BME280;58267;51.156;17.044;2023-05-25T04:09:05;100998.49;;;12.98;42.93
70690;BME280;58267;51.156;17.044;2023-05-25T04:11:31;100998.45;;;13.25;42.95
70690;BME280;58267;51.156;17.044;2023-05-25T04:13:56;101000.36;;;12.64;43.57
70690;BME280;58267;51.156;17.044;2023-05-25T04:16:21;100999.93;;;12.54;43.96
70690;BME280;58267;51.156;17.044;2023-05-25T04:18:47;101007.56;;;12.42;44.81
70690;BME280;58267;51.156;17.044;2023-05-25T04:21:12;101010.03;;;12.79;43.33
70690;BME280;58267;51.156;17.044;2023-05-25T04:23:38;101010.58;;;12.66;44.76
70690;BME280;58267;51.156;17.044;2023-05-25T04:26:04;101011.14;;;12.47;45.24
70690;BME280;58267;51.156;17.044;2023-05-25T04:28:30;101009.91;;;12.25;45.32
70690;BME280;58267;51.156;17.044;2023-05-25T04:30:55;101016.23;;;12.54;44.91
70690;BME280;58267;51.156;17.044;2023-05-25T04:33:21;101018.69;;;11.90;46.02
70690;BME280;58267;51.156;17.044;2023-05-25T04:35:47;101019.29;;;12.19;45.58
70690;BME280;58267;51.156;17.044;2023-05-25T04:38:13;101022.04;;;11.73;46.47
70690;BME280;58267;51.156;17.044;2023-05-25T04:40:38;101022.27;;;11.77;46.28
70690;BME280;58267;51.156;17.044;2023-05-25T04:43:03;101022.81;;;11.43;47.03
70690;BME280;58267;51.156;17.044;2023-05-25T04:45:29;101022.62;;;11.61;47.17
70690;BME280;58267;51.156;17.044;2023-05-25T04:47:54;101009.45;;;11.99;46.07
70690;BME280;58267;51.156;17.044;2023-05-25T04:50:20;101013.80;;;11.63;46.96
70690;BME280;58267;51.156;17.044;2023-05-25T04:52:45;101020.02;;;11.52;47.35
70690;BME280;58267;51.156;17.044;2023-05-25T04:55:11;101019.10;;;11.66;47.20
70690;BME280;58267;51.156;17.044;2023-05-25T04:57:36;101018.41;;;11.71;46.89
70690;BME280;58267;51.156;17.044;2023-05-25T05:00:01;101020.89;;;11.92;47.56
70690;BME280;58267;51.156;17.044;2023-05-25T05:02:26;101015.47;;;12.16;46.97
70690;BME280;58267;51.156;17.044;2023-05-25T05:04:52;101018.24;;;11.68;47.92
70690;BME280;58267;51.156;17.044;2023-05-25T05:07:18;101017.57;;;11.73;47.31
70690;BME280;58267;51.156;17.044;2023-05-25T05:09:42;101015.98;;;12.03;46.92
70690;BME280;58267;51.156;17.044;2023-05-25T05:12:08;101022.54;;;11.97;47.15
70690;BME280;58267;51.156;17.044;2023-05-25T05:14:34;101020.91;;;12.61;46.14
70690;BME280;58267;51.156;17.044;2023-05-25T05:17:00;101019.16;;;12.62;45.99
70690;BME280;58267;51.156;17.044;2023-05-25T05:19:26;101021.81;;;12.51;45.69
70690;BME280;58267;51.156;17.044;2023-05-25T05:21:51;101019.69;;;12.71;45.40
70690;BME280;58267;51.156;17.044;2023-05-25T05:24:16;101022.12;;;13.21;44.79
70690;BME280;58267;51.156;17.044;2023-05-25T05:26:41;101028.92;;;13.24;44.59
70690;BME280;58267;51.156;17.044;2023-05-25T05:29:07;101033.70;;;12.79;45.22
70690;BME280;58267;51.156;17.044;2023-05-25T05:31:33;101034.25;;;12.49;45.68
70690;BME280;58267;51.156;17.044;2023-05-25T05:33:58;101035.23;;;12.17;46.17
70690;BME280;58267;51.156;17.044;2023-05-25T05:36:24;101039.18;;;12.73;45.40
70690;BME280;58267;51.156;17.044;2023-05-25T05:38:49;101042.26;;;12.26;46.28
70690;BME280;58267;51.156;17.044;2023-05-25T05:41:14;101043.95;;;12.70;45.98
70690;BME280;58267;51.156;17.044;2023-05-25T05:43:40;101040.00;;;12.89;45.44
70690;BME280;58267;51.156;17.044;2023-05-25T05:46:05;101039.14;;;13.14;44.91
70690;BME280;58267;51.156;17.044;2023-05-25T05:48:31;101039.83;;;12.70;45.17
70690;BME280;58267;51.156;17.044;2023-05-25T05:50:56;101039.22;;;12.85;45.34
70690;BME280;58267;51.156;17.044;2023-05-25T05:53:22;101043.73;;;12.96;45.20
70690;BME280;58267;51.156;17.044;2023-05-25T05:55:47;101046.92;;;12.74;45.69
70690;BME280;58267;51.156;17.044;2023-05-25T05:58:13;101053.28;;;12.64;45.76
70690;BME280;58267;51.156;17.044;2023-05-25T06:00:39;101052.13;;;13.37;44.39
70690;BME280;58267;51.156;17.044;2023-05-25T06:03:04;101054.17;;;13.37;44.08
70690;BME280;58267;51.156;17.044;2023-05-25T06:05:30;101056.76;;;13.34;44.16
70690;BME280;58267;51.156;17.044;2023-05-25T06:07:56;101054.79;;;13.03;44.78
70690;BME280;58267;51.156;17.044;2023-05-25T06:10:21;101055.59;;;13.26;44.65
70690;BME280;58267;51.156;17.044;2023-05-25T06:12:46;101056.74;;;13.41;44.82
70690;BME280;58267;51.156;17.044;2023-05-25T06:15:12;101054.48;;;13.49;43.78
70690;BME280;58267;51.156;17.044;2023-05-25T06:17:37;101056.17;;;13.96;43.23
70690;BME280;58267;51.156;17.044;2023-05-25T06:20:03;101053.84;;;14.61;42.23
70690;BME280;58267;51.156;17.044;2023-05-25T06:22:28;101053.81;;;14.73;41.71
70690;BME280;58267;51.156;17.044;2023-05-25T06:24:53;101060.22;;;13.85;42.99
70690;BME280;58267;51.156;17.044;2023-05-25T06:27:19;101057.67;;;14.10;42.84
70690;BME280;58267;51.156;17.044;2023-05-25T06:29:44;101059.25;;;14.19;42.48
70690;BME280;58267;51.156;17.044;2023-05-25T06:32:09;101057.67;;;14.30;42.48
70690;BME280;58267;51.156;17.044;2023-05-25T06:34:36;101057.27;;;14.28;42.48
70690;BME280;58267;51.156;17.044;2023-05-25T06:37:01;101054.27;;;13.61;43.47
70690;BME280;58267;51.156;17.044;2023-05-25T06:39:27;101052.22;;;13.77;43.46
70690;BME280;58267;51.156;17.044;2023-05-25T06:41:53;101051.00;;;13.39;44.29
70690;BME280;58267;51.156;17.044;2023-05-25T06:44:18;101054.68;;;14.23;43.15
70690;BME280;58267;51.156;17.044;2023-05-25T06:46:43;101051.57;;;14.44;42.84
70690;BME280;58267;51.156;17.044;2023-05-25T06:49:09;101051.44;;;14.51;42.73
70690;BME280;58267;51.156;17.044;2023-05-25T06:51:34;101053.05;;;15.17;41.62
70690;BME280;58267;51.156;17.044;2023-05-25T06:53:59;101053.18;;;14.99;41.20
70690;BME280;58267;51.156;17.044;2023-05-25T06:56:25;101046.54;;;14.71;41.94
70690;BME280;58267;51.156;17.044;2023-05-25T06:58:50;101045.58;;;14.19;42.58
70690;BME280;58267;51.156;17.044;2023-05-25T07:01:16;101045.27;;;14.38;42.24
70690;BME280;58267;51.156;17.044;2023-05-25T07:03:42;101045.45;;;14.65;42.41
70690;BME280;58267;51.156;17.044;2023-05-25T07:06:08;101044.05;;;14.64;42.77
70690;BME280;58267;51.156;17.044;2023-05-25T07:08:32;101047.50;;;14.61;42.09
70690;BME280;58267;51.156;17.044;2023-05-25T07:10:58;101045.31;;;14.86;42.02
70690;BME280;58267;51.156;17.044;2023-05-25T07:13:23;101045.74;;;14.79;41.92
70690;BME280;58267;51.156;17.044;2023-05-25T07:15:49;101043.19;;;14.55;42.35
70690;BME280;58267;51.156;17.044;2023-05-25T07:18:15;101044.79;;;15.22;41.77
70690;BME280;58267;51.156;17.044;2023-05-25T07:20:41;101045.48;;;14.58;42.36
70690;BME280;58267;51.156;17.044;2023-05-25T07:23:07;101045.46;;;14.80;42.08
70690;BME280;58267;51.156;17.044;2023-05-25T07:25:32;101050.43;;;15.46;41.63
70690;BME280;58267;51.156;17.044;2023-05-25T07:27:57;101049.15;;;14.76;42.81
70690;BME280;58267;51.156;17.044;2023-05-25T07:30:22;101053.60;;;14.97;42.56
70690;BME280;58267;51.156;17.044;2023-05-25T07:32:48;101054.12;;;14.71;42.29
70690;BME280;58267;51.156;17.044;2023-05-25T07:35:13;101056.48;;;15.23;42.31
70690;BME280;58267;51.156;17.044;2023-05-25T07:37:39;101056.07;;;14.62;42.52
70690;BME280;58267;51.156;17.044;2023-05-25T07:40:06;101056.74;;;15.17;41.83
70690;BME280;58267;51.156;17.044;2023-05-25T07:42:30;101062.29;;;15.89;41.23
70690;BME280;58267;51.156;17.044;2023-05-25T07:44:55;101064.06;;;16.31;40.26
70690;BME280;58267;51.156;17.044;2023-05-25T07:47:21;101062.95;;;16.28;39.84
70690;BME280;58267;51.156;17.044;2023-05-25T07:49:46;101063.57;;;16.10;39.76
70690;BME280;58267;51.156;17.044;2023-05-25T07:52:12;101068.15;;;15.93;40.64
70690;BME280;58267;51.156;17.044;2023-05-25T07:54:37;101069.18;;;15.66;41.06
70690;BME280;58267;51.156;17.044;2023-05-25T07:57:02;101072.31;;;15.64;41.05
70690;BME280;58267;51.156;17.044;2023-05-25T07:59:27;101073.57;;;15.47;41.79
70690;BME280;58267;51.156;17.044;2023-05-25T08:01:52;101076.33;;;15.72;40.88
70690;BME280;58267;51.156;17.044;2023-05-25T08:04:18;101080.52;;;15.63;41.33
70690;BME280;58267;51.156;17.044;2023-05-25T08:06:44;101082.10;;;15.83;41.18
70690;BME280;58267;51.156;17.044;2023-05-25T08:09:09;101076.79;;;15.94;41.04
70690;BME280;58267;51.156;17.044;2023-05-25T08:11:34;101073.29;;;16.62;40.28
70690;BME280;58267;51.156;17.044;2023-05-25T08:14:00;101072.82;;;16.55;40.02
70690;BME280;58267;51.156;17.044;2023-05-25T08:16:25;101071.79;;;16.16;40.45
70690;BME280;58267;51.156;17.044;2023-05-25T08:18:50;101073.59;;;15.67;41.29
70690;BME280;58267;51.156;17.044;2023-05-25T08:21:17;101075.86;;;15.76;41.40
70690;BME280;58267;51.156;17.044;2023-05-25T08:23:42;101075.34;;;15.73;41.84
70690;BME280;58267;51.156;17.044;2023-05-25T08:26:07;101074.35;;;16.15;40.92
70690;BME280;58267;51.156;17.044;2023-05-25T08:28:32;101070.25;;;16.50;40.16
70690;BME280;58267;51.156;17.044;2023-05-25T08:30:59;101070.60;;;16.27;40.18
70690;BME280;58267;51.156;17.044;2023-05-25T08:33:25;101073.72;;;15.63;40.51
70690;BME280;58267;51.156;17.044;2023-05-25T08:35:50;101075.51;;;15.39;41.41
70690;BME280;58267;51.156;17.044;2023-05-25T08:38:15;101072.90;;;16.74;40.30
70690;BME280;58267;51.156;17.044;2023-05-25T08:40:41;101066.41;;;16.94;39.46
70690;BME280;58267;51.156;17.044;2023-05-25T08:43:06;101068.42;;;17.42;38.82
70690;BME280;58267;51.156;17.044;2023-05-25T08:45:31;101070.65;;;16.74;39.41
70690;BME280;58267;51.156;17.044;2023-05-25T08:47:58;101070.19;;;16.95;38.97
70690;BME280;58267;51.156;17.044;2023-05-25T08:50:23;101069.53;;;16.39;39.41
70690;BME280;58267;51.156;17.044;2023-05-25T08:52:50;101070.14;;;16.72;39.17
70690;BME280;58267;51.156;17.044;2023-05-25T08:55:14;101077.87;;;16.03;40.79
70690;BME280;58267;51.156;17.044;2023-05-25T08:57:45;101082.74;;;15.87;41.08
70690;BME280;58267;51.156;17.044;2023-05-25T09:00:06;101084.58;;;16.43;40.17
70690;BME280;58267;51.156;17.044;2023-05-25T09:02:34;101086.87;;;16.25;40.41
70690;BME280;58267;51.156;17.044;2023-05-25T09:04:56;101089.79;;;16.20;40.60
70690;BME280;58267;51.156;17.044;2023-05-25T09:07:21;101087.80;;;16.03;40.62
70690;BME280;58267;51.156;17.044;2023-05-25T09:09:47;101088.50;;;16.48;40.09
70690;BME280;58267;51.156;17.044;2023-05-25T09:12:12;101088.11;;;15.93;40.83
70690;BME280;58267;51.156;17.044;2023-05-25T09:14:37;101087.31;;;16.42;40.11
70690;BME280;58267;51.156;17.044;2023-05-25T09:17:03;101085.25;;;15.82;41.01
70690;BME280;58267;51.156;17.044;2023-05-25T09:19:28;101087.45;;;16.46;40.49
70690;BME280;58267;51.156;17.044;2023-05-25T09:21:54;101092.63;;;16.73;39.96
70690;BME280;58267;51.156;17.044;2023-05-25T09:24:19;101091.21;;;17.06;39.24
70690;BME280;58267;51.156;17.044;2023-05-25T09:26:45;101093.20;;;16.77;39.55
70690;BME280;58267;51.156;17.044;2023-05-25T09:29:12;101083.21;;;16.95;39.09
70690;BME280;58267;51.156;17.044;2023-05-25T09:31:36;101079.22;;;17.79;38.27
70690;BME280;58267;51.156;17.044;2023-05-25T09:34:01;101078.70;;;17.75;37.79
70690;BME280;58267;51.156;17.044;2023-05-25T09:36:27;101074.93;;;17.39;37.74
70690;BME280;58267;51.156;17.044;2023-05-25T09:38:53;101078.76;;;17.94;36.95
70690;BME280;58267;51.156;17.044;2023-05-25T09:41:18;101076.61;;;18.05;36.29
70690;BME280;58267;51.156;17.044;2023-05-25T09:43:45;101075.14;;;17.39;37.40
70690;BME280;58267;51.156;17.044;2023-05-25T09:46:10;101072.30;;;17.64;37.17
70690;BME280;58267;51.156;17.044;2023-05-25T09:48:35;101073.95;;;18.70;36.07
70690;BME280;58267;51.156;17.044;2023-05-25T09:51:00;101075.51;;;17.76;36.64
70690;BME280;58267;51.156;17.044;2023-05-25T09:53:26;101078.24;;;18.01;36.11
70690;BME280;58267;51.156;17.044;2023-05-25T09:55:51;101078.50;;;18.24;35.36
70690;BME280;58267;51.156;17.044;2023-05-25T09:58:17;101073.97;;;18.78;34.43
70690;BME280;58267;51.156;17.044;2023-05-25T10:00:41;101073.27;;;18.59;34.49
70690;BME280;58267;51.156;17.044;2023-05-25T10:03:07;101070.61;;;19.26;34.26
70690;BME280;58267;51.156;17.044;2023-05-25T10:05:32;101079.36;;;17.67;36.15
70690;BME280;58267;51.156;17.044;2023-05-25T10:07:58;101076.60;;;17.41;36.38
70690;BME280;58267;51.156;17.044;2023-05-25T10:10:24;101072.44;;;18.70;35.14
70690;BME280;58267;51.156;17.044;2023-05-25T10:12:50;101072.93;;;19.21;33.70
70690;BME280;58267;51.156;17.044;2023-05-25T10:15:15;101076.13;;;19.23;33.70
70690;BME280;58267;51.156;17.044;2023-05-25T10:17:44;101079.82;;;18.32;34.35
70690;BME280;58267;51.156;17.044;2023-05-25T10:20:07;101079.80;;;18.95;34.73
70690;BME280;58267;51.156;17.044;2023-05-25T10:22:32;101079.13;;;18.28;35.34
70690;BME280;58267;51.156;17.044;2023-05-25T10:25:07;101081.99;;;17.69;36.46
70690;BME280;58267;51.156;17.044;2023-05-25T10:27:26;101077.59;;;18.60;35.54
70690;BME280;58267;51.156;17.044;2023-05-25T10:29:47;101076.55;;;19.24;34.64
70690;BME280;58267;51.156;17.044;2023-05-25T10:32:10;101077.33;;;18.70;35.25
70690;BME280;58267;51.156;17.044;2023-05-25T10:34:36;101078.88;;;19.18;34.96
70690;BME280;58267;51.156;17.044;2023-05-25T10:37:02;101075.77;;;19.50;34.23
70690;BME280;58267;51.156;17.044;2023-05-25T10:39:27;101072.59;;;19.42;34.30
70690;BME280;58267;51.156;17.044;2023-05-25T10:41:52;101069.80;;;19.44;34.25
70690;BME280;58267;51.156;17.044;2023-05-25T10:44:18;101067.69;;;19.84;33.24
70690;BME280;58267;51.156;17.044;2023-05-25T10:46:43;101072.00;;;19.62;34.00
70690;BME280;58267;51.156;17.044;2023-05-25T10:49:09;101069.09;;;20.17;33.26
70690;BME280;58267;51.156;17.044;2023-05-25T10:51:38;101066.85;;;19.68;33.28
70690;BME280;58267;51.156;17.044;2023-05-25T10:54:00;101064.23;;;18.16;35.63
70690;BME280;58267;51.156;17.044;2023-05-25T10:56:24;101061.38;;;19.48;34.58
70690;BME280;58267;51.156;17.044;2023-05-25T10:58:52;101069.63;;;18.83;35.42
70690;BME280;58267;51.156;17.044;2023-05-25T11:01:15;101056.45;;;18.82;34.95
70690;BME280;58267;51.156;17.044;2023-05-25T11:06:06;101059.17;;;20.57;33.33
70690;BME280;58267;51.156;17.044;2023-05-25T11:10:58;101054.75;;;20.72;33.05
70690;BME280;58267;51.156;17.044;2023-05-25T11:13:33;101054.18;;;20.96;32.54
70690;BME280;58267;51.156;17.044;2023-05-25T11:18:14;101047.93;;;20.64;33.18
70690;BME280;58267;51.156;17.044;2023-05-25T11:20:39;101042.30;;;19.72;34.03
70690;BME280;58267;51.156;17.044;2023-05-25T11:25:35;101037.03;;;19.47;33.99
70690;BME280;58267;51.156;17.044;2023-05-25T11:28:01;101037.76;;;19.83;33.64
70690;BME280;58267;51.156;17.044;2023-05-25T11:30:26;101041.41;;;20.15;33.01
70690;BME280;58267;51.156;17.044;2023-05-25T11:32:48;101039.40;;;19.52;33.40
70690;BME280;58267;51.156;17.044;2023-05-25T11:35:11;101039.40;;;19.74;33.58
70690;BME280;58267;51.156;17.044;2023-05-25T11:37:36;101041.30;;;19.78;33.94
70690;BME280;58267;51.156;17.044;2023-05-25T11:40:06;101037.84;;;20.61;32.42
70690;BME280;58267;51.156;17.044;2023-05-25T11:42:28;101034.64;;;21.37;32.12
70690;BME280;58267;51.156;17.044;2023-05-25T11:44:52;101037.82;;;20.79;31.96
70690;BME280;58267;51.156;17.044;2023-05-25T11:47:20;101038.23;;;20.74;32.28
70690;BME280;58267;51.156;17.044;2023-05-25T11:49:44;101041.58;;;20.02;33.22
70690;BME280;58267;51.156;17.044;2023-05-25T11:52:08;101043.40;;;19.48;34.03
70690;BME280;58267;51.156;17.044;2023-05-25T11:54:34;101034.51;;;18.75;35.07
70690;BME280;58267;51.156;17.044;2023-05-25T11:56:59;101038.62;;;19.20;34.14
70690;BME280;58267;51.156;17.044;2023-05-25T11:59:25;101037.23;;;20.12;33.48
70690;BME280;58267;51.156;17.044;2023-05-25T12:01:55;101036.42;;;19.36;34.14
70690;BME280;58267;51.156;17.044;2023-05-25T12:04:16;101030.72;;;19.87;33.30
70690;BME280;58267;51.156;17.044;2023-05-25T12:06:41;101029.46;;;20.04;33.57
70690;BME280;58267;51.156;17.044;2023-05-25T12:09:10;101027.95;;;20.49;33.35
70690;BME280;58267;51.156;17.044;2023-05-25T12:11:33;101027.04;;;18.81;34.97
70690;BME280;58267;51.156;17.044;2023-05-25T12:13:57;101029.30;;;19.75;34.23
70690;BME280;58267;51.156;17.044;2023-05-25T12:16:22;101027.16;;;18.92;35.41
70690;BME280;58267;51.156;17.044;2023-05-25T12:18:49;101026.64;;;19.94;34.14
70690;BME280;58267;51.156;17.044;2023-05-25T12:21:14;101029.20;;;18.23;36.14
70690;BME280;58267;51.156;17.044;2023-05-25T12:23:39;101027.99;;;19.36;34.67
70690;BME280;58267;51.156;17.044;2023-05-25T12:26:08;101027.44;;;19.12;35.70
70690;BME280;58267;51.156;17.044;2023-05-25T12:28:29;101026.70;;;18.49;36.45
70690;BME280;58267;51.156;17.044;2023-05-25T12:30:55;101028.15;;;18.21;36.45
70690;BME280;58267;51.156;17.044;2023-05-25T12:33:20;101017.69;;;18.85;35.83
70690;BME280;58267;51.156;17.044;2023-05-25T12:35:47;101015.27;;;19.25;35.25
70690;BME280;58267;51.156;17.044;2023-05-25T12:38:13;101014.86;;;20.01;34.21
70690;BME280;58267;51.156;17.044;2023-05-25T12:40:37;101015.60;;;19.10;34.90